<?xml version="1.0" encoding="UTF-8" standalone="no" ?>
<gpx xmlns="http://www.topografix.com/GPX/1/1" xmlns:xsi="http://www.w3.org/2001/XMLSchema-instance" xsi:schemaLocation="http://www.topografix.com/GPX/1/1 http://www.topografix.com/GPX/1/1/gpx.xsd" version="1.1" creator="VisuGPX - https://www.visugpx.com">
  <metadata>
    <name>46 - Porte-du-Quercy : le Boulvé</name>
    <desc><![CDATA[Cet itinéraire fait partie de la collection de EquiLiberté : www.equiliberte.org Circuit NON ACCESSIBLE aux attelages
Départ au gîte Coeur de Village https://gitecoeurdevillage.wixsite.com/porteduquercy]]></desc>
  </metadata>
  <wpt lat="44.42028" lon="1.14492">
    <ele>147.5</ele>
    <name><![CDATA[46800 Coeur de Village]]></name>
    <desc><![CDATA[ Le Bourg - Le Boulvé
46800 Porte du Quercy
06.37.96.14.10​
gitecoeurdevillage@hotmail.com
https://gitecoeurdevillage.wixsite.com/porteduquercy]]></desc>
    <type><![CDATA[hotel]]></type>
  </wpt>
  <trk>
    <name><![CDATA[46 - Porte-du-Quercy : le Boulvé ouest - Grand parcours 2017]]></name>
    <extensions>
      <line xmlns="http://www.topografix.com/GPX/gpx_style/0/2">
        <color>800080</color>
        <opacity>0.9</opacity>
        <width>5</width>
      </line>
    </extensions>
    <trkseg>
      <trkpt lat="44.41935" lon="1.14433">
        <ele>150</ele>
        <time>2021-06-01T14:59:44Z</time>
      </trkpt>
      <trkpt lat="44.41966" lon="1.14378">
        <ele>150</ele>
        <time>2021-06-01T15:00:24Z</time>
      </trkpt>
      <trkpt lat="44.41979" lon="1.1436">
        <ele>150</ele>
        <time>2021-06-01T15:00:39Z</time>
      </trkpt>
      <trkpt lat="44.42004" lon="1.14348">
        <ele>151</ele>
        <time>2021-06-01T15:01:00Z</time>
      </trkpt>
      <trkpt lat="44.42066" lon="1.14364">
        <ele>149</ele>
        <time>2021-06-01T15:01:50Z</time>
      </trkpt>
      <trkpt lat="44.42133" lon="1.14361">
        <ele>147</ele>
        <time>2021-06-01T15:02:44Z</time>
      </trkpt>
      <trkpt lat="44.42205" lon="1.14314">
        <ele>146</ele>
        <time>2021-06-01T15:03:48Z</time>
      </trkpt>
      <trkpt lat="44.4225" lon="1.14281">
        <ele>146</ele>
        <time>2021-06-01T15:04:28Z</time>
      </trkpt>
      <trkpt lat="44.42258" lon="1.14199">
        <ele>150</ele>
        <time>2021-06-01T15:05:16Z</time>
      </trkpt>
      <trkpt lat="44.42305" lon="1.14156">
        <ele>153</ele>
        <time>2021-06-01T15:06:01Z</time>
      </trkpt>
      <trkpt lat="44.42341" lon="1.14135">
        <ele>155</ele>
        <time>2021-06-01T15:06:32Z</time>
      </trkpt>
      <trkpt lat="44.42389" lon="1.1412">
        <ele>154</ele>
        <time>2021-06-01T15:07:11Z</time>
      </trkpt>
      <trkpt lat="44.42522" lon="1.14119">
        <ele>150</ele>
        <time>2021-06-01T15:08:58Z</time>
      </trkpt>
      <trkpt lat="44.4263" lon="1.14091">
        <ele>147</ele>
        <time>2021-06-01T15:10:26Z</time>
      </trkpt>
      <trkpt lat="44.42787" lon="1.14053">
        <ele>142</ele>
        <time>2021-06-01T15:12:33Z</time>
      </trkpt>
      <trkpt lat="44.4286" lon="1.1395">
        <ele>142</ele>
        <time>2021-06-01T15:13:56Z</time>
      </trkpt>
      <trkpt lat="44.42908" lon="1.13871">
        <ele>143</ele>
        <time>2021-06-01T15:14:55Z</time>
      </trkpt>
      <trkpt lat="44.43006" lon="1.13768">
        <ele>144</ele>
        <time>2021-06-01T15:16:34Z</time>
      </trkpt>
      <trkpt lat="44.43055" lon="1.13747">
        <ele>140</ele>
        <time>2021-06-01T15:17:15Z</time>
      </trkpt>
      <trkpt lat="44.43113" lon="1.13723">
        <ele>138</ele>
        <time>2021-06-01T15:18:03Z</time>
      </trkpt>
      <trkpt lat="44.43195" lon="1.13593">
        <ele>141</ele>
        <time>2021-06-01T15:19:42Z</time>
      </trkpt>
      <trkpt lat="44.43243" lon="1.13554">
        <ele>140</ele>
        <time>2021-06-01T15:20:27Z</time>
      </trkpt>
      <trkpt lat="44.43331" lon="1.13518">
        <ele>138</ele>
        <time>2021-06-01T15:21:40Z</time>
      </trkpt>
      <trkpt lat="44.43399" lon="1.13493">
        <ele>135</ele>
        <time>2021-06-01T15:22:36Z</time>
      </trkpt>
      <trkpt lat="44.43442" lon="1.13448">
        <ele>133</ele>
        <time>2021-06-01T15:23:19Z</time>
      </trkpt>
      <trkpt lat="44.43483" lon="1.13462">
        <ele>131</ele>
        <time>2021-06-01T15:23:53Z</time>
      </trkpt>
      <trkpt lat="44.43506" lon="1.13401">
        <ele>130</ele>
        <time>2021-06-01T15:24:33Z</time>
      </trkpt>
      <trkpt lat="44.43531" lon="1.13319">
        <ele>134</ele>
        <time>2021-06-01T15:25:24Z</time>
      </trkpt>
      <trkpt lat="44.43546" lon="1.133">
        <ele>136</ele>
        <time>2021-06-01T15:25:40Z</time>
      </trkpt>
      <trkpt lat="44.43634" lon="1.13339">
        <ele>134</ele>
        <time>2021-06-01T15:26:54Z</time>
      </trkpt>
      <trkpt lat="44.43766" lon="1.1336">
        <ele>136</ele>
        <time>2021-06-01T15:28:40Z</time>
      </trkpt>
      <trkpt lat="44.43834" lon="1.13375">
        <ele>134</ele>
        <time>2021-06-01T15:29:35Z</time>
      </trkpt>
      <trkpt lat="44.43986" lon="1.13581">
        <ele>138</ele>
        <time>2021-06-01T15:32:24Z</time>
      </trkpt>
      <trkpt lat="44.44091" lon="1.13724">
        <ele>132</ele>
        <time>2021-06-01T15:34:22Z</time>
      </trkpt>
      <trkpt lat="44.44107" lon="1.1371">
        <ele>134</ele>
        <time>2021-06-01T15:34:37Z</time>
      </trkpt>
      <trkpt lat="44.44105" lon="1.13693">
        <ele>135</ele>
        <time>2021-06-01T15:34:47Z</time>
      </trkpt>
      <trkpt lat="44.44137" lon="1.13636">
        <ele>141</ele>
        <time>2021-06-01T15:35:28Z</time>
      </trkpt>
      <trkpt lat="44.44165" lon="1.13514">
        <ele>154</ele>
        <time>2021-06-01T15:36:41Z</time>
      </trkpt>
      <trkpt lat="44.44194" lon="1.13455">
        <ele>155</ele>
        <time>2021-06-01T15:37:22Z</time>
      </trkpt>
      <trkpt lat="44.44208" lon="1.13414">
        <ele>156</ele>
        <time>2021-06-01T15:37:48Z</time>
      </trkpt>
      <trkpt lat="44.44205" lon="1.13294">
        <ele>160</ele>
        <time>2021-06-01T15:38:57Z</time>
      </trkpt>
      <trkpt lat="44.44197" lon="1.13242">
        <ele>162</ele>
        <time>2021-06-01T15:39:27Z</time>
      </trkpt>
      <trkpt lat="44.44204" lon="1.13161">
        <ele>165</ele>
        <time>2021-06-01T15:40:14Z</time>
      </trkpt>
      <trkpt lat="44.44198" lon="1.13118">
        <ele>168</ele>
        <time>2021-06-01T15:40:39Z</time>
      </trkpt>
      <trkpt lat="44.44179" lon="1.13168">
        <ele>166</ele>
        <time>2021-06-01T15:41:11Z</time>
      </trkpt>
      <trkpt lat="44.44159" lon="1.13201">
        <ele>167</ele>
        <time>2021-06-01T15:41:36Z</time>
      </trkpt>
      <trkpt lat="44.44156" lon="1.13188">
        <ele>167</ele>
        <time>2021-06-01T15:41:44Z</time>
      </trkpt>
      <trkpt lat="44.44155" lon="1.1313">
        <ele>170</ele>
        <time>2021-06-01T15:42:17Z</time>
      </trkpt>
      <trkpt lat="44.44145" lon="1.13137">
        <ele>172</ele>
        <time>2021-06-01T15:42:26Z</time>
      </trkpt>
      <trkpt lat="44.44124" lon="1.13205">
        <ele>172</ele>
        <time>2021-06-01T15:43:08Z</time>
      </trkpt>
      <trkpt lat="44.44105" lon="1.13203">
        <ele>175</ele>
        <time>2021-06-01T15:43:24Z</time>
      </trkpt>
      <trkpt lat="44.44112" lon="1.13162">
        <ele>175</ele>
        <time>2021-06-01T15:43:48Z</time>
      </trkpt>
      <trkpt lat="44.44093" lon="1.13072">
        <ele>184</ele>
        <time>2021-06-01T15:44:41Z</time>
      </trkpt>
      <trkpt lat="44.44069" lon="1.12969">
        <ele>194</ele>
        <time>2021-06-01T15:45:43Z</time>
      </trkpt>
      <trkpt lat="44.44051" lon="1.12899">
        <ele>197</ele>
        <time>2021-06-01T15:46:26Z</time>
      </trkpt>
      <trkpt lat="44.4404" lon="1.12691">
        <ele>201</ele>
        <time>2021-06-01T15:48:25Z</time>
      </trkpt>
      <trkpt lat="44.44012" lon="1.12478">
        <ele>211</ele>
        <time>2021-06-01T15:50:29Z</time>
      </trkpt>
      <trkpt lat="44.44011" lon="1.12418">
        <ele>213</ele>
        <time>2021-06-01T15:51:03Z</time>
      </trkpt>
      <trkpt lat="44.43989" lon="1.12348">
        <ele>220</ele>
        <time>2021-06-01T15:51:47Z</time>
      </trkpt>
      <trkpt lat="44.44074" lon="1.12222">
        <ele>230</ele>
        <time>2021-06-01T15:53:26Z</time>
      </trkpt>
      <trkpt lat="44.43946" lon="1.12245">
        <ele>232</ele>
        <time>2021-06-01T15:55:09Z</time>
      </trkpt>
      <trkpt lat="44.43989" lon="1.1216">
        <ele>237</ele>
        <time>2021-06-01T15:56:09Z</time>
      </trkpt>
      <trkpt lat="44.44087" lon="1.12007">
        <ele>245</ele>
        <time>2021-06-01T15:58:06Z</time>
      </trkpt>
      <trkpt lat="44.44098" lon="1.11956">
        <ele>247</ele>
        <time>2021-06-01T15:58:37Z</time>
      </trkpt>
      <trkpt lat="44.44103" lon="1.11831">
        <ele>252</ele>
        <time>2021-06-01T15:59:49Z</time>
      </trkpt>
      <trkpt lat="44.44149" lon="1.11768">
        <ele>256</ele>
        <time>2021-06-01T16:00:40Z</time>
      </trkpt>
      <trkpt lat="44.44263" lon="1.11695">
        <ele>255</ele>
        <time>2021-06-01T16:02:20Z</time>
      </trkpt>
      <trkpt lat="44.44389" lon="1.11676">
        <ele>252</ele>
        <time>2021-06-01T16:04:02Z</time>
      </trkpt>
      <trkpt lat="44.44435" lon="1.11611">
        <ele>250</ele>
        <time>2021-06-01T16:04:54Z</time>
      </trkpt>
      <trkpt lat="44.44507" lon="1.11489">
        <ele>248</ele>
        <time>2021-06-01T16:06:25Z</time>
      </trkpt>
      <trkpt lat="44.44441" lon="1.11329">
        <ele>254</ele>
        <time>2021-06-01T16:08:10Z</time>
      </trkpt>
      <trkpt lat="44.44435" lon="1.11238">
        <ele>255</ele>
        <time>2021-06-01T16:09:03Z</time>
      </trkpt>
      <trkpt lat="44.44452" lon="1.11135">
        <ele>254</ele>
        <time>2021-06-01T16:10:03Z</time>
      </trkpt>
      <trkpt lat="44.44437" lon="1.11032">
        <ele>253</ele>
        <time>2021-06-01T16:11:03Z</time>
      </trkpt>
      <trkpt lat="44.4435" lon="1.11034">
        <ele>256</ele>
        <time>2021-06-01T16:12:13Z</time>
      </trkpt>
      <trkpt lat="44.44282" lon="1.10991">
        <ele>257</ele>
        <time>2021-06-01T16:13:12Z</time>
      </trkpt>
      <trkpt lat="44.44245" lon="1.10905">
        <ele>259</ele>
        <time>2021-06-01T16:14:10Z</time>
      </trkpt>
      <trkpt lat="44.44169" lon="1.10863">
        <ele>260</ele>
        <time>2021-06-01T16:15:15Z</time>
      </trkpt>
      <trkpt lat="44.44093" lon="1.10852">
        <ele>261</ele>
        <time>2021-06-01T16:16:16Z</time>
      </trkpt>
      <trkpt lat="44.43963" lon="1.10832">
        <ele>263</ele>
        <time>2021-06-01T16:18:01Z</time>
      </trkpt>
      <trkpt lat="44.4384" lon="1.10838">
        <ele>264</ele>
        <time>2021-06-01T16:19:40Z</time>
      </trkpt>
      <trkpt lat="44.43682" lon="1.1075">
        <ele>262</ele>
        <time>2021-06-01T16:21:56Z</time>
      </trkpt>
      <trkpt lat="44.43616" lon="1.10515">
        <ele>254</ele>
        <time>2021-06-01T16:24:20Z</time>
      </trkpt>
      <trkpt lat="44.43575" lon="1.10462">
        <ele>256</ele>
        <time>2021-06-01T16:25:05Z</time>
      </trkpt>
      <trkpt lat="44.43655" lon="1.10383">
        <ele>254</ele>
        <time>2021-06-01T16:26:23Z</time>
      </trkpt>
      <trkpt lat="44.43813" lon="1.10306">
        <ele>252</ele>
        <time>2021-06-01T16:28:37Z</time>
      </trkpt>
      <trkpt lat="44.43841" lon="1.10234">
        <ele>248</ele>
        <time>2021-06-01T16:29:24Z</time>
      </trkpt>
      <trkpt lat="44.44006" lon="1.10076">
        <ele>248</ele>
        <time>2021-06-01T16:32:04Z</time>
      </trkpt>
      <trkpt lat="44.44045" lon="1.09938">
        <ele>245</ele>
        <time>2021-06-01T16:33:29Z</time>
      </trkpt>
      <trkpt lat="44.44107" lon="1.09854">
        <ele>243</ele>
        <time>2021-06-01T16:34:38Z</time>
      </trkpt>
      <trkpt lat="44.44157" lon="1.09769">
        <ele>239</ele>
        <time>2021-06-01T16:35:41Z</time>
      </trkpt>
      <trkpt lat="44.44216" lon="1.09687">
        <ele>237</ele>
        <time>2021-06-01T16:36:48Z</time>
      </trkpt>
      <trkpt lat="44.44359" lon="1.09536">
        <ele>234</ele>
        <time>2021-06-01T16:39:11Z</time>
      </trkpt>
      <trkpt lat="44.44422" lon="1.09467">
        <ele>232</ele>
        <time>2021-06-01T16:40:15Z</time>
      </trkpt>
      <trkpt lat="44.44497" lon="1.09436">
        <ele>230</ele>
        <time>2021-06-01T16:41:18Z</time>
      </trkpt>
      <trkpt lat="44.44534" lon="1.09308">
        <ele>230</ele>
        <time>2021-06-01T16:42:37Z</time>
      </trkpt>
      <trkpt lat="44.44565" lon="1.09225">
        <ele>233</ele>
        <time>2021-06-01T16:43:30Z</time>
      </trkpt>
      <trkpt lat="44.44562" lon="1.09153">
        <ele>237</ele>
        <time>2021-06-01T16:44:11Z</time>
      </trkpt>
      <trkpt lat="44.44578" lon="1.09005">
        <ele>236</ele>
        <time>2021-06-01T16:45:37Z</time>
      </trkpt>
      <trkpt lat="44.44565" lon="1.08835">
        <ele>230</ele>
        <time>2021-06-01T16:47:15Z</time>
      </trkpt>
      <trkpt lat="44.44476" lon="1.08683">
        <ele>223</ele>
        <time>2021-06-01T16:49:07Z</time>
      </trkpt>
      <trkpt lat="44.44294" lon="1.08655">
        <ele>227</ele>
        <time>2021-06-01T16:51:34Z</time>
      </trkpt>
      <trkpt lat="44.44031" lon="1.08501">
        <ele>229</ele>
        <time>2021-06-01T16:55:22Z</time>
      </trkpt>
      <trkpt lat="44.43911" lon="1.08501">
        <ele>229</ele>
        <time>2021-06-01T16:56:58Z</time>
      </trkpt>
      <trkpt lat="44.4358" lon="1.08677">
        <ele>236</ele>
        <time>2021-06-01T17:01:41Z</time>
      </trkpt>
      <trkpt lat="44.43449" lon="1.08716">
        <ele>241</ele>
        <time>2021-06-01T17:03:29Z</time>
      </trkpt>
      <trkpt lat="44.43098" lon="1.08819">
        <ele>241</ele>
        <time>2021-06-01T17:08:16Z</time>
      </trkpt>
      <trkpt lat="44.42974" lon="1.08801">
        <ele>244</ele>
        <time>2021-06-01T17:09:56Z</time>
      </trkpt>
      <trkpt lat="44.42877" lon="1.08877">
        <ele>245</ele>
        <time>2021-06-01T17:11:25Z</time>
      </trkpt>
      <trkpt lat="44.4282" lon="1.08944">
        <ele>246</ele>
        <time>2021-06-01T17:12:24Z</time>
      </trkpt>
      <trkpt lat="44.42705" lon="1.0898">
        <ele>246</ele>
        <time>2021-06-01T17:13:58Z</time>
      </trkpt>
      <trkpt lat="44.42606" lon="1.09094">
        <ele>248</ele>
        <time>2021-06-01T17:15:41Z</time>
      </trkpt>
      <trkpt lat="44.42524" lon="1.09182">
        <ele>249</ele>
        <time>2021-06-01T17:17:04Z</time>
      </trkpt>
      <trkpt lat="44.42505" lon="1.09235">
        <ele>250</ele>
        <time>2021-06-01T17:17:38Z</time>
      </trkpt>
      <trkpt lat="44.42457" lon="1.09287">
        <ele>250</ele>
        <time>2021-06-01T17:18:26Z</time>
      </trkpt>
      <trkpt lat="44.42284" lon="1.09394">
        <ele>251</ele>
        <time>2021-06-01T17:20:58Z</time>
      </trkpt>
      <trkpt lat="44.42132" lon="1.09521">
        <ele>257</ele>
        <time>2021-06-01T17:23:19Z</time>
      </trkpt>
      <trkpt lat="44.42069" lon="1.09598">
        <ele>263</ele>
        <time>2021-06-01T17:24:26Z</time>
      </trkpt>
      <trkpt lat="44.42031" lon="1.09622">
        <ele>265</ele>
        <time>2021-06-01T17:25:00Z</time>
      </trkpt>
      <trkpt lat="44.41815" lon="1.09944">
        <ele>258</ele>
        <time>2021-06-01T17:29:12Z</time>
      </trkpt>
      <trkpt lat="44.41677" lon="1.09899">
        <ele>245</ele>
        <time>2021-06-01T17:31:06Z</time>
      </trkpt>
      <trkpt lat="44.41709" lon="1.09991">
        <ele>245</ele>
        <time>2021-06-01T17:32:04Z</time>
      </trkpt>
      <trkpt lat="44.41732" lon="1.1009">
        <ele>246</ele>
        <time>2021-06-01T17:33:04Z</time>
      </trkpt>
      <trkpt lat="44.41769" lon="1.10164">
        <ele>244</ele>
        <time>2021-06-01T17:33:56Z</time>
      </trkpt>
      <trkpt lat="44.41727" lon="1.10242">
        <ele>229</ele>
        <time>2021-06-01T17:34:51Z</time>
      </trkpt>
      <trkpt lat="44.41746" lon="1.10259">
        <ele>230</ele>
        <time>2021-06-01T17:35:10Z</time>
      </trkpt>
      <trkpt lat="44.41775" lon="1.1022">
        <ele>233</ele>
        <time>2021-06-01T17:35:42Z</time>
      </trkpt>
      <trkpt lat="44.41985" lon="1.10192">
        <ele>229</ele>
        <time>2021-06-01T17:38:31Z</time>
      </trkpt>
      <trkpt lat="44.42019" lon="1.10222">
        <ele>228</ele>
        <time>2021-06-01T17:39:03Z</time>
      </trkpt>
      <trkpt lat="44.42034" lon="1.103">
        <ele>221</ele>
        <time>2021-06-01T17:39:49Z</time>
      </trkpt>
      <trkpt lat="44.42045" lon="1.10344">
        <ele>222</ele>
        <time>2021-06-01T17:40:16Z</time>
      </trkpt>
      <trkpt lat="44.42042" lon="1.10382">
        <ele>223</ele>
        <time>2021-06-01T17:40:38Z</time>
      </trkpt>
      <trkpt lat="44.42017" lon="1.10389">
        <ele>215</ele>
        <time>2021-06-01T17:40:58Z</time>
      </trkpt>
      <trkpt lat="44.42015" lon="1.1041">
        <ele>215</ele>
        <time>2021-06-01T17:41:10Z</time>
      </trkpt>
      <trkpt lat="44.42002" lon="1.1042">
        <ele>212</ele>
        <time>2021-06-01T17:41:22Z</time>
      </trkpt>
      <trkpt lat="44.41969" lon="1.1042">
        <ele>205</ele>
        <time>2021-06-01T17:41:48Z</time>
      </trkpt>
      <trkpt lat="44.41936" lon="1.10436">
        <ele>200</ele>
        <time>2021-06-01T17:42:16Z</time>
      </trkpt>
      <trkpt lat="44.41875" lon="1.10527">
        <ele>195</ele>
        <time>2021-06-01T17:43:28Z</time>
      </trkpt>
      <trkpt lat="44.41846" lon="1.10647">
        <ele>187</ele>
        <time>2021-06-01T17:44:40Z</time>
      </trkpt>
      <trkpt lat="44.41842" lon="1.10693">
        <ele>185</ele>
        <time>2021-06-01T17:45:07Z</time>
      </trkpt>
      <trkpt lat="44.41836" lon="1.1072">
        <ele>183</ele>
        <time>2021-06-01T17:45:23Z</time>
      </trkpt>
      <trkpt lat="44.4182" lon="1.10737">
        <ele>181</ele>
        <time>2021-06-01T17:45:39Z</time>
      </trkpt>
      <trkpt lat="44.41826" lon="1.10768">
        <ele>180</ele>
        <time>2021-06-01T17:45:57Z</time>
      </trkpt>
      <trkpt lat="44.41828" lon="1.10845">
        <ele>179</ele>
        <time>2021-06-01T17:46:41Z</time>
      </trkpt>
      <trkpt lat="44.41836" lon="1.10928">
        <ele>177</ele>
        <time>2021-06-01T17:47:29Z</time>
      </trkpt>
      <trkpt lat="44.4185" lon="1.10974">
        <ele>177</ele>
        <time>2021-06-01T17:47:58Z</time>
      </trkpt>
      <trkpt lat="44.41873" lon="1.11037">
        <ele>176</ele>
        <time>2021-06-01T17:48:38Z</time>
      </trkpt>
      <trkpt lat="44.41899" lon="1.11072">
        <ele>175</ele>
        <time>2021-06-01T17:49:07Z</time>
      </trkpt>
      <trkpt lat="44.41931" lon="1.11097">
        <ele>174</ele>
        <time>2021-06-01T17:49:36Z</time>
      </trkpt>
      <trkpt lat="44.41985" lon="1.11166">
        <ele>172</ele>
        <time>2021-06-01T17:50:35Z</time>
      </trkpt>
      <trkpt lat="44.42022" lon="1.11213">
        <ele>171</ele>
        <time>2021-06-01T17:51:15Z</time>
      </trkpt>
      <trkpt lat="44.42054" lon="1.11257">
        <ele>168</ele>
        <time>2021-06-01T17:51:51Z</time>
      </trkpt>
      <trkpt lat="44.42056" lon="1.11282">
        <ele>166</ele>
        <time>2021-06-01T17:52:05Z</time>
      </trkpt>
      <trkpt lat="44.42044" lon="1.11288">
        <ele>165</ele>
        <time>2021-06-01T17:52:16Z</time>
      </trkpt>
      <trkpt lat="44.42036" lon="1.113">
        <ele>164</ele>
        <time>2021-06-01T17:52:25Z</time>
      </trkpt>
      <trkpt lat="44.41991" lon="1.11307">
        <ele>163</ele>
        <time>2021-06-01T17:53:01Z</time>
      </trkpt>
      <trkpt lat="44.41933" lon="1.11366">
        <ele>161</ele>
        <time>2021-06-01T17:53:59Z</time>
      </trkpt>
      <trkpt lat="44.41914" lon="1.11385">
        <ele>160</ele>
        <time>2021-06-01T17:54:17Z</time>
      </trkpt>
      <trkpt lat="44.41778" lon="1.11537">
        <ele>159</ele>
        <time>2021-06-01T17:56:37Z</time>
      </trkpt>
      <trkpt lat="44.41576" lon="1.11674">
        <ele>166</ele>
        <time>2021-06-01T17:59:36Z</time>
      </trkpt>
      <trkpt lat="44.41714" lon="1.11863">
        <ele>161</ele>
        <time>2021-06-01T18:02:11Z</time>
      </trkpt>
      <trkpt lat="44.41706" lon="1.11944">
        <ele>165</ele>
        <time>2021-06-01T18:02:58Z</time>
      </trkpt>
      <trkpt lat="44.41654" lon="1.12034">
        <ele>161</ele>
        <time>2021-06-01T18:04:04Z</time>
      </trkpt>
      <trkpt lat="44.41576" lon="1.12154">
        <ele>164</ele>
        <time>2021-06-01T18:05:37Z</time>
      </trkpt>
      <trkpt lat="44.41533" lon="1.12216">
        <ele>167</ele>
        <time>2021-06-01T18:06:26Z</time>
      </trkpt>
      <trkpt lat="44.41534" lon="1.12343">
        <ele>175</ele>
        <time>2021-06-01T18:07:39Z</time>
      </trkpt>
      <trkpt lat="44.41534" lon="1.12381">
        <ele>176</ele>
        <time>2021-06-01T18:08:00Z</time>
      </trkpt>
      <trkpt lat="44.41384" lon="1.12514">
        <ele>185</ele>
        <time>2021-06-01T18:10:23Z</time>
      </trkpt>
      <trkpt lat="44.41351" lon="1.12491">
        <ele>187</ele>
        <time>2021-06-01T18:10:52Z</time>
      </trkpt>
      <trkpt lat="44.41331" lon="1.12517">
        <ele>189</ele>
        <time>2021-06-01T18:11:14Z</time>
      </trkpt>
      <trkpt lat="44.41331" lon="1.12617">
        <ele>190</ele>
        <time>2021-06-01T18:12:11Z</time>
      </trkpt>
      <trkpt lat="44.41274" lon="1.12707">
        <ele>191</ele>
        <time>2021-06-01T18:13:20Z</time>
      </trkpt>
      <trkpt lat="44.41136" lon="1.12763">
        <ele>194</ele>
        <time>2021-06-01T18:15:15Z</time>
      </trkpt>
      <trkpt lat="44.40986" lon="1.12773">
        <ele>206</ele>
        <time>2021-06-01T18:17:15Z</time>
      </trkpt>
      <trkpt lat="44.40917" lon="1.12828">
        <ele>211</ele>
        <time>2021-06-01T18:18:19Z</time>
      </trkpt>
      <trkpt lat="44.40863" lon="1.12935">
        <ele>225</ele>
        <time>2021-06-01T18:19:34Z</time>
      </trkpt>
      <trkpt lat="44.40791" lon="1.13042">
        <ele>230</ele>
        <time>2021-06-01T18:20:58Z</time>
      </trkpt>
      <trkpt lat="44.40707" lon="1.13057">
        <ele>238</ele>
        <time>2021-06-01T18:22:06Z</time>
      </trkpt>
      <trkpt lat="44.40648" lon="1.13047">
        <ele>245</ele>
        <time>2021-06-01T18:22:53Z</time>
      </trkpt>
      <trkpt lat="44.4058" lon="1.1313">
        <ele>251</ele>
        <time>2021-06-01T18:24:05Z</time>
      </trkpt>
      <trkpt lat="44.40457" lon="1.13177">
        <ele>255</ele>
        <time>2021-06-01T18:25:48Z</time>
      </trkpt>
      <trkpt lat="44.40526" lon="1.13201">
        <ele>255</ele>
        <time>2021-06-01T18:26:44Z</time>
      </trkpt>
      <trkpt lat="44.40593" lon="1.13229">
        <ele>259</ele>
        <time>2021-06-01T18:27:40Z</time>
      </trkpt>
      <trkpt lat="44.40636" lon="1.13202">
        <ele>256</ele>
        <time>2021-06-01T18:28:18Z</time>
      </trkpt>
      <trkpt lat="44.4067" lon="1.13214">
        <ele>257</ele>
        <time>2021-06-01T18:28:46Z</time>
      </trkpt>
      <trkpt lat="44.40687" lon="1.13261">
        <ele>260</ele>
        <time>2021-06-01T18:29:16Z</time>
      </trkpt>
      <trkpt lat="44.40773" lon="1.13293">
        <ele>257</ele>
        <time>2021-06-01T18:30:28Z</time>
      </trkpt>
      <trkpt lat="44.40857" lon="1.13235">
        <ele>255</ele>
        <time>2021-06-01T18:31:43Z</time>
      </trkpt>
      <trkpt lat="44.40944" lon="1.13246">
        <ele>256</ele>
        <time>2021-06-01T18:32:53Z</time>
      </trkpt>
      <trkpt lat="44.4115" lon="1.1318">
        <ele>242</ele>
        <time>2021-06-01T18:35:42Z</time>
      </trkpt>
      <trkpt lat="44.41308" lon="1.13124">
        <ele>240</ele>
        <time>2021-06-01T18:37:52Z</time>
      </trkpt>
      <trkpt lat="44.41458" lon="1.13079">
        <ele>234</ele>
        <time>2021-06-01T18:39:55Z</time>
      </trkpt>
      <trkpt lat="44.41387" lon="1.13167">
        <ele>230</ele>
        <time>2021-06-01T18:41:11Z</time>
      </trkpt>
      <trkpt lat="44.41308" lon="1.13212">
        <ele>227</ele>
        <time>2021-06-01T18:42:19Z</time>
      </trkpt>
      <trkpt lat="44.41236" lon="1.13212">
        <ele>230</ele>
        <time>2021-06-01T18:43:17Z</time>
      </trkpt>
      <trkpt lat="44.41234" lon="1.13276">
        <ele>215</ele>
        <time>2021-06-01T18:43:54Z</time>
      </trkpt>
      <trkpt lat="44.41157" lon="1.13291">
        <ele>217</ele>
        <time>2021-06-01T18:44:56Z</time>
      </trkpt>
      <trkpt lat="44.41042" lon="1.13459">
        <ele>196</ele>
        <time>2021-06-01T18:47:09Z</time>
      </trkpt>
      <trkpt lat="44.4094" lon="1.13574">
        <ele>188</ele>
        <time>2021-06-01T18:48:54Z</time>
      </trkpt>
      <trkpt lat="44.40938" lon="1.13632">
        <ele>188</ele>
        <time>2021-06-01T18:49:27Z</time>
      </trkpt>
      <trkpt lat="44.41102" lon="1.13602">
        <ele>185</ele>
        <time>2021-06-01T18:51:39Z</time>
      </trkpt>
      <trkpt lat="44.41171" lon="1.13611">
        <ele>187</ele>
        <time>2021-06-01T18:52:35Z</time>
      </trkpt>
      <trkpt lat="44.41216" lon="1.13621">
        <ele>189</ele>
        <time>2021-06-01T18:53:11Z</time>
      </trkpt>
      <trkpt lat="44.41252" lon="1.13654">
        <ele>195</ele>
        <time>2021-06-01T18:53:46Z</time>
      </trkpt>
      <trkpt lat="44.41309" lon="1.13697">
        <ele>195</ele>
        <time>2021-06-01T18:54:38Z</time>
      </trkpt>
      <trkpt lat="44.41384" lon="1.13772">
        <ele>188</ele>
        <time>2021-06-01T18:55:52Z</time>
      </trkpt>
      <trkpt lat="44.41432" lon="1.13883">
        <ele>181</ele>
        <time>2021-06-01T18:57:06Z</time>
      </trkpt>
      <trkpt lat="44.41534" lon="1.13954">
        <ele>171</ele>
        <time>2021-06-01T18:58:37Z</time>
      </trkpt>
      <trkpt lat="44.41616" lon="1.13963">
        <ele>166</ele>
        <time>2021-06-01T18:59:43Z</time>
      </trkpt>
      <trkpt lat="44.41761" lon="1.14207">
        <ele>156</ele>
        <time>2021-06-01T19:02:44Z</time>
      </trkpt>
      <trkpt lat="44.41849" lon="1.14383">
        <ele>149</ele>
        <time>2021-06-01T19:04:47Z</time>
      </trkpt>
      <trkpt lat="44.41867" lon="1.1442">
        <ele>149</ele>
        <time>2021-06-01T19:05:13Z</time>
      </trkpt>
      <trkpt lat="44.41922" lon="1.14463">
        <ele>150</ele>
        <time>2021-06-01T19:06:03Z</time>
      </trkpt>
      <trkpt lat="44.41934" lon="1.14433">
        <ele>150</ele>
        <time>2021-06-01T19:06:23Z</time>
      </trkpt>
    </trkseg>
  </trk>
</gpx>